sensor_id;sensor_type;location;lat;lon;timestamp;pressure;altitude;pressure_sealevel;temperature;humidity
58367;BME280;57745;42.524;12.052;2022-10-16T00:01:51;97257.47;;;23.25;46.13
58367;BME280;57745;42.524;12.052;2022-10-16T00:04:16;97256.41;;;23.17;46.36
58367;BME280;57745;42.524;12.052;2022-10-16T00:06:42;97256.22;;;23.26;46.44
58367;BME280;57745;42.524;12.052;2022-10-16T00:09:07;97263.25;;;23.22;46.30
58367;BME280;57745;42.524;12.052;2022-10-16T00:11:35;97262.31;;;23.31;46.23
58367;BME280;57745;42.524;12.052;2022-10-16T00:14:09;97268.38;;;23.35;46.32
58367;BME280;57745;42.524;12.052;2022-10-16T00:16:35;97263.56;;;23.29;46.27
58367;BME280;57745;42.524;12.052;2022-10-16T00:19:00;97257.59;;;23.37;45.92
58367;BME280;57745;42.524;12.052;2022-10-16T00:21:28;97262.56;;;23.33;46.11
58367;BME280;57745;42.524;12.052;2022-10-16T00:23:57;97263.75;;;23.26;46.23
58367;BME280;57745;42.524;12.052;2022-10-16T00:26:24;97257.25;;;23.29;45.91
58367;BME280;57745;42.524;12.052;2022-10-16T00:28:50;97258.50;;;23.28;45.89
58367;BME280;57745;42.524;12.052;2022-10-16T00:31:18;97265.63;;;23.35;45.92
58367;BME280;57745;42.524;12.052;2022-10-16T00:33:44;97259.63;;;23.42;45.46
58367;BME280;57745;42.524;12.052;2022-10-16T00:36:12;97258.31;;;23.37;45.68
58367;BME280;57745;42.524;12.052;2022-10-16T00:38:37;97254.06;;;23.36;45.83
58367;BME280;57745;42.524;12.052;2022-10-16T00:41:03;97257.59;;;23.37;45.91
58367;BME280;57745;42.524;12.052;2022-10-16T00:43:43;97262.09;;;23.34;45.88
58367;BME280;57745;42.524;12.052;2022-10-16T00:46:39;97267.84;;;23.31;45.61
58367;BME280;57745;42.524;12.052;2022-10-16T00:49:08;97261.44;;;23.19;46.24
58367;BME280;57745;42.524;12.052;2022-10-16T00:51:55;97266.38;;;23.35;45.81
58367;BME280;57745;42.524;12.052;2022-10-16T00:54:24;97269.06;;;23.24;45.88
58367;BME280;57745;42.524;12.052;2022-10-16T00:56:53;97268.31;;;23.29;46.11
58367;BME280;57745;42.524;12.052;2022-10-16T00:59:23;97271.59;;;23.27;45.88
58367;BME280;57745;42.524;12.052;2022-10-16T01:01:50;97266.81;;;23.28;45.87
58367;BME280;57745;42.524;12.052;2022-10-16T01:04:17;97272.81;;;23.26;46.19
58367;BME280;57745;42.524;12.052;2022-10-16T01:09:20;97265.63;;;23.35;45.84
58367;BME280;57745;42.524;12.052;2022-10-16T01:12:00;97270.38;;;23.34;45.70
58367;BME280;57745;42.524;12.052;2022-10-16T01:14:48;97269.38;;;23.37;45.66
58367;BME280;57745;42.524;12.052;2022-10-16T01:20:26;97272.16;;;23.37;45.49
58367;BME280;57745;42.524;12.052;2022-10-16T01:23:15;97283.47;;;23.34;45.63
58367;BME280;57745;42.524;12.052;2022-10-16T01:31:08;97279.66;;;23.31;45.49
58367;BME280;57745;42.524;12.052;2022-10-16T01:34:02;97274.63;;;23.29;45.55
58367;BME280;57745;42.524;12.052;2022-10-16T01:36:38;97274.91;;;23.32;45.60
58367;BME280;57745;42.524;12.052;2022-10-16T01:39:06;97271.63;;;23.33;45.50
58367;BME280;57745;42.524;12.052;2022-10-16T01:41:38;97273.94;;;23.40;45.29
58367;BME280;57745;42.524;12.052;2022-10-16T01:44:07;97272.66;;;23.36;45.74
58367;BME280;57745;42.524;12.052;2022-10-16T01:46:37;97268.09;;;23.33;45.42
58367;BME280;57745;42.524;12.052;2022-10-16T01:49:10;97268.88;;;23.33;45.63
58367;BME280;57745;42.524;12.052;2022-10-16T01:51:37;97263.13;;;23.37;45.53
58367;BME280;57745;42.524;12.052;2022-10-16T01:54:08;97258.28;;;23.32;45.68
58367;BME280;57745;42.524;12.052;2022-10-16T01:56:41;97261.59;;;23.36;45.59
58367;BME280;57745;42.524;12.052;2022-10-16T01:59:18;97263.59;;;23.35;45.68
58367;BME280;57745;42.524;12.052;2022-10-16T02:02:01;97265.63;;;23.35;45.50
58367;BME280;57745;42.524;12.052;2022-10-16T02:04:39;97262.09;;;23.34;45.90
58367;BME280;57745;42.524;12.052;2022-10-16T02:07:06;97273.91;;;23.35;45.96
58367;BME280;57745;42.524;12.052;2022-10-16T02:09:34;97267.91;;;23.36;45.79
58367;BME280;57745;42.524;12.052;2022-10-16T02:12:06;97269.13;;;23.35;45.85
58367;BME280;57745;42.524;12.052;2022-10-16T02:14:38;97270.16;;;23.38;45.94
58367;BME280;57745;42.524;12.052;2022-10-16T02:17:12;97263.34;;;23.33;46.10
58367;BME280;57745;42.524;12.052;2022-10-16T02:19:38;97271.66;;;23.39;45.78
58367;BME280;57745;42.524;12.052;2022-10-16T02:22:06;97270.69;;;23.42;45.89
58367;BME280;57745;42.524;12.052;2022-10-16T02:27:08;97269.63;;;23.34;45.94
58367;BME280;57745;42.524;12.052;2022-10-16T02:29:39;97282.22;;;23.35;46.23
58367;BME280;57745;42.524;12.052;2022-10-16T02:32:10;97275.16;;;23.34;46.16
58367;BME280;57745;42.524;12.052;2022-10-16T02:34:37;97281.47;;;23.34;45.68
58367;BME280;57745;42.524;12.052;2022-10-16T02:37:05;97280.91;;;23.30;46.05
58367;BME280;57745;42.524;12.052;2022-10-16T02:39:32;97267.34;;;23.32;45.84
58367;BME280;57745;42.524;12.052;2022-10-16T02:42:00;97269.09;;;23.29;46.12
58367;BME280;57745;42.524;12.052;2022-10-16T02:44:26;97273.91;;;23.35;45.75
58367;BME280;57745;42.524;12.052;2022-10-16T02:46:52;97274.84;;;23.26;46.13
58367;BME280;57745;42.524;12.052;2022-10-16T02:49:17;97274.34;;;23.27;46.06
58367;BME280;57745;42.524;12.052;2022-10-16T02:51:43;97278.91;;;23.31;45.93
58367;BME280;57745;42.524;12.052;2022-10-16T02:54:09;97279.13;;;23.27;46.17
58367;BME280;57745;42.524;12.052;2022-10-16T02:56:34;97274.84;;;23.26;46.28
58367;BME280;57745;42.524;12.052;2022-10-16T02:59:01;97277.88;;;23.28;45.93
58367;BME280;57745;42.524;12.052;2022-10-16T03:01:27;97279.66;;;23.31;46.08
58367;BME280;57745;42.524;12.052;2022-10-16T03:03:53;97277.66;;;23.32;45.94
58367;BME280;57745;42.524;12.052;2022-10-16T03:06:18;97272.13;;;23.32;45.94
58367;BME280;57745;42.524;12.052;2022-10-16T03:08:44;97270.81;;;23.27;46.11
58367;BME280;57745;42.524;12.052;2022-10-16T03:11:09;97268.81;;;23.27;46.10
58367;BME280;57745;42.524;12.052;2022-10-16T03:13:35;97290.25;;;23.33;46.11
58367;BME280;57745;42.524;12.052;2022-10-16T03:16:01;97277.38;;;23.29;45.94
58367;BME280;57745;42.524;12.052;2022-10-16T03:18:26;97274.84;;;23.26;46.37
58367;BME280;57745;42.524;12.052;2022-10-16T03:20:51;97278.84;;;23.25;46.45
58367;BME280;57745;42.524;12.052;2022-10-16T03:23:17;97285.69;;;23.29;46.04
58367;BME280;57745;42.524;12.052;2022-10-16T03:25:42;97288.16;;;23.22;46.03
58367;BME280;57745;42.524;12.052;2022-10-16T03:28:08;97289.16;;;23.24;46.23
58367;BME280;57745;42.524;12.052;2022-10-16T03:30:34;97285.66;;;23.24;46.12
58367;BME280;57745;42.524;12.052;2022-10-16T03:32:59;97281.00;;;23.10;46.67
58367;BME280;57745;42.524;12.052;2022-10-16T03:35:25;97277.28;;;23.18;46.28
58367;BME280;57745;42.524;12.052;2022-10-16T03:37:51;97283.09;;;23.20;46.18
58367;BME280;57745;42.524;12.052;2022-10-16T03:40:17;97282.34;;;23.20;46.13
58367;BME280;57745;42.524;12.052;2022-10-16T03:42:43;97285.59;;;23.18;45.92
58367;BME280;57745;42.524;12.052;2022-10-16T03:45:09;97284.34;;;23.19;45.86
58367;BME280;57745;42.524;12.052;2022-10-16T03:47:35;97278.28;;;23.15;45.92
58367;BME280;57745;42.524;12.052;2022-10-16T03:50:02;97282.06;;;23.18;45.83
58367;BME280;57745;42.524;12.052;2022-10-16T03:52:28;97292.38;;;23.17;45.94
58367;BME280;57745;42.524;12.052;2022-10-16T03:54:54;97292.38;;;23.17;45.98
58367;BME280;57745;42.524;12.052;2022-10-16T03:57:19;97295.91;;;23.18;46.05
58367;BME280;57745;42.524;12.052;2022-10-16T03:59:46;97296.38;;;23.16;45.96
58367;BME280;57745;42.524;12.052;2022-10-16T04:02:12;97301.72;;;23.20;45.73
58367;BME280;57745;42.524;12.052;2022-10-16T04:04:37;97298.66;;;23.18;45.70
58367;BME280;57745;42.524;12.052;2022-10-16T04:07:03;97298.59;;;23.12;46.00
58367;BME280;57745;42.524;12.052;2022-10-16T04:09:29;97305.72;;;23.19;45.34
58367;BME280;57745;42.524;12.052;2022-10-16T04:11:54;97303.16;;;23.15;45.36
58367;BME280;57745;42.524;12.052;2022-10-16T04:14:19;97305.44;;;23.17;45.58
58367;BME280;57745;42.524;12.052;2022-10-16T04:16:45;97304.22;;;23.18;45.53
58367;BME280;57745;42.524;12.052;2022-10-16T04:19:11;97311.00;;;23.17;45.61
58367;BME280;57745;42.524;12.052;2022-10-16T04:21:37;97322.25;;;23.13;45.19
58367;BME280;57745;42.524;12.052;2022-10-16T04:24:02;97313.72;;;23.11;45.52
58367;BME280;57745;42.524;12.052;2022-10-16T04:26:28;97313.97;;;23.13;45.29
58367;BME280;57745;42.524;12.052;2022-10-16T04:28:55;97315.22;;;23.12;45.23
58367;BME280;57745;42.524;12.052;2022-10-16T04:31:21;97316.97;;;23.10;45.46
58367;BME280;57745;42.524;12.052;2022-10-16T04:33:47;97317.72;;;23.10;45.52
58367;BME280;57745;42.524;12.052;2022-10-16T04:36:12;97322.53;;;23.15;45.43
58367;BME280;57745;42.524;12.052;2022-10-16T04:38:38;97323.78;;;23.14;45.38
58367;BME280;57745;42.524;12.052;2022-10-16T04:41:05;97325.28;;;23.10;45.67
58367;BME280;57745;42.524;12.052;2022-10-16T04:43:31;97325.03;;;23.13;45.34
58367;BME280;57745;42.524;12.052;2022-10-16T04:45:56;97320.53;;;23.16;45.27
58367;BME280;57745;42.524;12.052;2022-10-16T04:48:22;97325.31;;;23.15;45.52
58367;BME280;57745;42.524;12.052;2022-10-16T04:50:49;97323.78;;;23.14;45.51
58367;BME280;57745;42.524;12.052;2022-10-16T04:53:15;97321.28;;;23.16;45.48
58367;BME280;57745;42.524;12.052;2022-10-16T04:55:42;97321.78;;;23.15;45.20
58367;BME280;57745;42.524;12.052;2022-10-16T04:58:08;97319.78;;;23.15;45.58
58367;BME280;57745;42.524;12.052;2022-10-16T05:00:34;97322.06;;;23.17;45.41
58367;BME280;57745;42.524;12.052;2022-10-16T05:03:00;97325.19;;;23.04;45.89
58367;BME280;57745;42.524;12.052;2022-10-16T05:05:27;97325.47;;;23.06;45.81
58367;BME280;57745;42.524;12.052;2022-10-16T05:07:53;97320.72;;;23.07;45.71
58367;BME280;57745;42.524;12.052;2022-10-16T05:10:19;97318.50;;;23.11;45.37
58367;BME280;57745;42.524;12.052;2022-10-16T05:12:46;97317.72;;;23.10;45.38
58367;BME280;57745;42.524;12.052;2022-10-16T05:15:11;97310.94;;;23.11;45.21
58367;BME280;57745;42.524;12.052;2022-10-16T05:17:37;97309.44;;;23.10;45.15
58367;BME280;57745;42.524;12.052;2022-10-16T05:20:03;97313.94;;;23.08;45.36
58367;BME280;57745;42.524;12.052;2022-10-16T05:22:28;97307.66;;;23.13;45.22
58367;BME280;57745;42.524;12.052;2022-10-16T05:24:54;97318.25;;;23.14;45.32
58367;BME280;57745;42.524;12.052;2022-10-16T05:27:20;97315.47;;;23.14;45.03
58367;BME280;57745;42.524;12.052;2022-10-16T05:29:46;97319.50;;;23.13;45.30
58367;BME280;57745;42.524;12.052;2022-10-16T05:32:13;97326.78;;;23.11;45.28
58367;BME280;57745;42.524;12.052;2022-10-16T05:34:39;97324.03;;;23.11;45.60
58367;BME280;57745;42.524;12.052;2022-10-16T05:37:04;97332.06;;;23.09;45.47
58367;BME280;57745;42.524;12.052;2022-10-16T05:39:30;97325.75;;;23.08;45.75
58367;BME280;57745;42.524;12.052;2022-10-16T05:41:56;97329.78;;;23.07;45.64
58367;BME280;57745;42.524;12.052;2022-10-16T05:44:21;97331.78;;;23.07;45.79
58367;BME280;57745;42.524;12.052;2022-10-16T05:46:47;97332.25;;;23.05;45.59
58367;BME280;57745;42.524;12.052;2022-10-16T05:49:12;97333.78;;;23.06;45.56
58367;BME280;57745;42.524;12.052;2022-10-16T05:51:39;97323.00;;;23.08;45.53
58367;BME280;57745;42.524;12.052;2022-10-16T05:54:04;97325.53;;;23.12;45.58
58367;BME280;57745;42.524;12.052;2022-10-16T05:56:30;97330.53;;;23.08;45.69
58367;BME280;57745;42.524;12.052;2022-10-16T05:58:55;97333.28;;;23.08;45.64
58367;BME280;57745;42.524;12.052;2022-10-16T06:01:21;97324.50;;;23.09;45.70
58367;BME280;57745;42.524;12.052;2022-10-16T06:03:51;97330.03;;;23.09;45.95
58367;BME280;57745;42.524;12.052;2022-10-16T06:06:22;97339.59;;;23.08;46.08
58367;BME280;57745;42.524;12.052;2022-10-16T06:08:49;97345.59;;;23.07;45.79
58367;BME280;57745;42.524;12.052;2022-10-16T06:11:21;97345.59;;;23.07;45.93
58367;BME280;57745;42.524;12.052;2022-10-16T06:13:50;97349.41;;;23.09;45.71
58367;BME280;57745;42.524;12.052;2022-10-16T06:16:17;97354.66;;;23.07;45.81
58367;BME280;57745;42.524;12.052;2022-10-16T06:18:42;97353.16;;;23.06;46.29
58367;BME280;57745;42.524;12.052;2022-10-16T06:21:14;97351.91;;;23.07;45.93
58367;BME280;57745;42.524;12.052;2022-10-16T06:23:41;97349.13;;;23.07;46.28
58367;BME280;57745;42.524;12.052;2022-10-16T06:26:12;97354.66;;;23.07;45.93
58367;BME280;57745;42.524;12.052;2022-10-16T06:28:38;97355.06;;;23.00;46.31
58367;BME280;57745;42.524;12.052;2022-10-16T06:31:05;97370.22;;;23.05;46.19
58367;BME280;57745;42.524;12.052;2022-10-16T06:33:31;97367.25;;;23.08;45.96
58367;BME280;57745;42.524;12.052;2022-10-16T06:36:05;97371.00;;;23.05;46.19
58367;BME280;57745;42.524;12.052;2022-10-16T06:38:31;97378.25;;;23.03;46.54
58367;BME280;57745;42.524;12.052;2022-10-16T06:40:57;97380.06;;;23.06;46.34
58367;BME280;57745;42.524;12.052;2022-10-16T06:43:24;97384.53;;;23.03;46.27
58367;BME280;57745;42.524;12.052;2022-10-16T06:45:54;97384.34;;;23.07;46.23
58367;BME280;57745;42.524;12.052;2022-10-16T06:48:21;97389.88;;;23.07;46.50
58367;BME280;57745;42.524;12.052;2022-10-16T06:51:13;97389.13;;;23.06;46.36
58367;BME280;57745;42.524;12.052;2022-10-16T06:53:41;97392.91;;;23.09;46.40
58367;BME280;57745;42.524;12.052;2022-10-16T06:56:21;97404.94;;;23.06;46.35
58367;BME280;57745;42.524;12.052;2022-10-16T06:58:48;97399.69;;;23.08;46.45
58367;BME280;57745;42.524;12.052;2022-10-16T07:01:14;97409.16;;;23.01;46.65
58367;BME280;57745;42.524;12.052;2022-10-16T07:03:41;97405.72;;;23.06;46.77
58367;BME280;57745;42.524;12.052;2022-10-16T07:06:09;97410.00;;;23.07;46.65
58367;BME280;57745;42.524;12.052;2022-10-16T07:08:36;97406.00;;;23.08;46.82
58367;BME280;57745;42.524;12.052;2022-10-16T07:11:04;97413.72;;;23.04;46.71
58367;BME280;57745;42.524;12.052;2022-10-16T07:13:33;97415.25;;;23.05;47.06
58367;BME280;57745;42.524;12.052;2022-10-16T07:16:07;97412.56;;;23.11;46.90
58367;BME280;57745;42.524;12.052;2022-10-16T07:18:33;97425.88;;;23.12;46.60
58367;BME280;57745;42.524;12.052;2022-10-16T07:23:37;97426.31;;;23.05;47.21
58367;BME280;57745;42.524;12.052;2022-10-16T07:26:04;97423.06;;;23.07;47.24
58367;BME280;57745;42.524;12.052;2022-10-16T07:28:31;97429.38;;;23.07;47.20
58367;BME280;57745;42.524;12.052;2022-10-16T07:31:04;97428.41;;;23.10;47.26
58367;BME280;57745;42.524;12.052;2022-10-16T07:33:30;97429.09;;;23.05;47.30
58367;BME280;57745;42.524;12.052;2022-10-16T07:35:56;97428.88;;;23.09;47.36
58367;BME280;57745;42.524;12.052;2022-10-16T07:38:22;97435.19;;;23.09;47.43
58367;BME280;57745;42.524;12.052;2022-10-16T07:40:48;97433.38;;;23.06;47.48
58367;BME280;57745;42.524;12.052;2022-10-16T07:43:14;97441.13;;;23.02;47.78
58367;BME280;57745;42.524;12.052;2022-10-16T07:45:50;97442.94;;;23.05;47.83
58367;BME280;57745;42.524;12.052;2022-10-16T07:48:17;97438.16;;;23.06;47.72
58367;BME280;57745;42.524;12.052;2022-10-16T07:50:43;97440.84;;;23.00;47.76
58367;BME280;57745;42.524;12.052;2022-10-16T07:53:09;97450.94;;;23.03;47.68
58367;BME280;57745;42.524;12.052;2022-10-16T07:55:35;97447.66;;;22.99;48.13
58367;BME280;57745;42.524;12.052;2022-10-16T07:58:01;97451.00;;;22.88;48.47
58367;BME280;57745;42.524;12.052;2022-10-16T08:00:27;97461.19;;;22.97;48.40
58367;BME280;57745;42.524;12.052;2022-10-16T08:02:53;97467.53;;;23.03;48.22
58367;BME280;57745;42.524;12.052;2022-10-16T08:05:19;97458.28;;;23.06;48.01
58367;BME280;57745;42.524;12.052;2022-10-16T08:07:49;97464.78;;;23.03;48.67
58367;BME280;57745;42.524;12.052;2022-10-16T08:10:19;97463.19;;;22.97;48.41
58367;BME280;57745;42.524;12.052;2022-10-16T08:12:46;97472.13;;;23.06;48.58
58367;BME280;57745;42.524;12.052;2022-10-16T08:15:12;97471.97;;;22.95;48.80
58367;BME280;57745;42.524;12.052;2022-10-16T08:17:37;97467.00;;;22.99;49.02
58367;BME280;57745;42.524;12.052;2022-10-16T08:20:04;97474.59;;;23.04;48.63
58367;BME280;57745;42.524;12.052;2022-10-16T08:22:29;97474.81;;;23.01;49.13
58367;BME280;57745;42.524;12.052;2022-10-16T08:24:55;97472.03;;;23.01;48.90
58367;BME280;57745;42.524;12.052;2022-10-16T08:27:21;97483.19;;;23.06;49.03
58367;BME280;57745;42.524;12.052;2022-10-16T08:29:48;97480.09;;;22.99;49.30
58367;BME280;57745;42.524;12.052;2022-10-16T08:32:13;97475.03;;;22.97;49.34
58367;BME280;57745;42.524;12.052;2022-10-16T08:34:39;97483.38;;;23.03;49.04
58367;BME280;57745;42.524;12.052;2022-10-16T08:37:04;97481.94;;;23.07;49.04
58367;BME280;57745;42.524;12.052;2022-10-16T08:39:41;97485.03;;;22.95;48.74
58367;BME280;57745;42.524;12.052;2022-10-16T08:47:45;97495.25;;;22.88;49.07
58367;BME280;57745;42.524;12.052;2022-10-16T08:50:37;97497.25;;;22.88;49.75
58367;BME280;57745;42.524;12.052;2022-10-16T08:53:04;97494.41;;;22.97;49.58
58367;BME280;57745;42.524;12.052;2022-10-16T08:55:46;97501.69;;;23.00;49.65
58367;BME280;57745;42.524;12.052;2022-10-16T08:58:18;97493.81;;;22.93;49.66
58367;BME280;57745;42.524;12.052;2022-10-16T09:00:47;97499.84;;;22.91;49.58
58367;BME280;57745;42.524;12.052;2022-10-16T09:25:30;97514.16;;;22.90;49.90
58367;BME280;57745;42.524;12.052;2022-10-16T09:27:57;97514.16;;;22.75;50.34
58367;BME280;57745;42.524;12.052;2022-10-16T09:30:23;97522.16;;;22.88;50.01
58367;BME280;57745;42.524;12.052;2022-10-16T09:32:52;97522.59;;;23.01;50.53
58367;BME280;57745;42.524;12.052;2022-10-16T09:35:32;97519.91;;;22.86;51.88
58367;BME280;57745;42.524;12.052;2022-10-16T09:38:00;97519.56;;;22.99;50.31
58367;BME280;57745;42.524;12.052;2022-10-16T09:40:33;97526.41;;;23.04;50.19
58367;BME280;57745;42.524;12.052;2022-10-16T09:45:53;97524.59;;;22.80;51.04
58367;BME280;57745;42.524;12.052;2022-10-16T09:48:21;97518.16;;;22.89;50.42
58367;BME280;57745;42.524;12.052;2022-10-16T09:50:56;97519.91;;;23.07;49.91
58367;BME280;57745;42.524;12.052;2022-10-16T09:53:22;97518.66;;;23.08;50.47
58367;BME280;57745;42.524;12.052;2022-10-16T09:55:52;97520.81;;;22.98;50.65
58367;BME280;57745;42.524;12.052;2022-10-16T09:58:21;97522.88;;;23.03;50.47
58367;BME280;57745;42.524;12.052;2022-10-16T10:00:52;97523.94;;;22.56;52.95
58367;BME280;57745;42.524;12.052;2022-10-16T10:03:36;97515.81;;;22.82;51.94
58367;BME280;57745;42.524;12.052;2022-10-16T10:06:16;97522.94;;;22.88;51.52
58367;BME280;57745;42.524;12.052;2022-10-16T10:08:59;97526.59;;;22.80;52.54
58367;BME280;57745;42.524;12.052;2022-10-16T10:16:48;97514.53;;;22.98;51.37
58367;BME280;57745;42.524;12.052;2022-10-16T10:19:18;97512.56;;;22.83;52.04
58367;BME280;57745;42.524;12.052;2022-10-16T10:21:45;97520.00;;;22.77;52.10
58367;BME280;57745;42.524;12.052;2022-10-16T10:24:13;97513.31;;;22.84;51.94
58367;BME280;57745;42.524;12.052;2022-10-16T10:27:08;97523.16;;;22.85;52.85
58367;BME280;57745;42.524;12.052;2022-10-16T10:32:18;97520.56;;;22.81;51.92
58367;BME280;57745;42.524;12.052;2022-10-16T10:40:34;97519.63;;;22.70;53.29
58367;BME280;57745;42.524;12.052;2022-10-16T10:45:26;97517.28;;;22.98;51.83
58367;BME280;57745;42.524;12.052;2022-10-16T10:50:48;97518.31;;;23.20;50.44
58367;BME280;57745;42.524;12.052;2022-10-16T10:56:12;97514.59;;;23.23;50.33
58367;BME280;57745;42.524;12.052;2022-10-16T11:02:17;97517.63;;;23.25;50.01
58367;BME280;57745;42.524;12.052;2022-10-16T11:05:05;97509.53;;;23.22;50.35
58367;BME280;57745;42.524;12.052;2022-10-16T11:07:40;97510.69;;;23.15;50.37
58367;BME280;57745;42.524;12.052;2022-10-16T11:10:17;97501.78;;;23.26;50.19
58367;BME280;57745;42.524;12.052;2022-10-16T11:13:51;97508.34;;;23.28;49.61
58367;BME280;57745;42.524;12.052;2022-10-16T11:15:54;97510.50;;;23.19;50.17
58367;BME280;57745;42.524;12.052;2022-10-16T11:18:32;97507.53;;;23.22;49.95
58367;BME280;57745;42.524;12.052;2022-10-16T11:21:08;97507.25;;;23.20;49.90
58367;BME280;57745;42.524;12.052;2022-10-16T11:26:30;97499.25;;;23.22;50.12
58367;BME280;57745;42.524;12.052;2022-10-16T11:29:00;97498.97;;;23.20;49.92
58367;BME280;57745;42.524;12.052;2022-10-16T11:31:47;97499.50;;;23.24;49.78
58367;BME280;57745;42.524;12.052;2022-10-16T11:34:37;97500.06;;;23.28;49.88
58367;BME280;57745;42.524;12.052;2022-10-16T11:39:30;97489.41;;;23.21;49.81
58367;BME280;57745;42.524;12.052;2022-10-16T11:47:05;97492.72;;;23.25;49.62
58367;BME280;57745;42.524;12.052;2022-10-16T11:49:36;97496.72;;;23.24;49.47
58367;BME280;57745;42.524;12.052;2022-10-16T11:54:43;97490.94;;;23.22;49.91
58367;BME280;57745;42.524;12.052;2022-10-16T11:57:35;97499.34;;;23.13;49.80
58367;BME280;57745;42.524;12.052;2022-10-16T12:00:14;97499.44;;;23.19;49.70
58367;BME280;57745;42.524;12.052;2022-10-16T12:06:00;97498.13;;;23.14;49.87
58367;BME280;57745;42.524;12.052;2022-10-16T12:08:30;97501.97;;;23.02;51.29
58367;BME280;57745;42.524;12.052;2022-10-16T12:11:21;97499.44;;;22.99;50.25
58367;BME280;57745;42.524;12.052;2022-10-16T12:13:47;97494.53;;;23.08;49.94
58367;BME280;57745;42.524;12.052;2022-10-16T12:18:45;97493.63;;;23.17;49.80
58367;BME280;57745;42.524;12.052;2022-10-16T12:21:12;97490.03;;;23.11;50.30
58367;BME280;57745;42.524;12.052;2022-10-16T12:23:48;97495.81;;;23.13;50.00
58367;BME280;57745;42.524;12.052;2022-10-16T12:26:34;97489.75;;;23.09;49.83
58367;BME280;57745;42.524;12.052;2022-10-16T12:31:52;97493.56;;;23.11;49.97
58367;BME280;57745;42.524;12.052;2022-10-16T12:34:37;97486.66;;;23.21;49.81
58367;BME280;57745;42.524;12.052;2022-10-16T12:37:18;97487.19;;;23.25;49.46
58367;BME280;57745;42.524;12.052;2022-10-16T12:39:47;97495.22;;;23.23;49.65
58367;BME280;57745;42.524;12.052;2022-10-16T12:44:49;97484.69;;;23.27;49.46
58367;BME280;57745;42.524;12.052;2022-10-16T12:47:47;97486.69;;;23.27;49.50
58367;BME280;57745;42.524;12.052;2022-10-16T12:52:53;97481.91;;;23.27;49.61
58367;BME280;57745;42.524;12.052;2022-10-16T12:55:20;97483.66;;;23.25;49.92
58367;BME280;57745;42.524;12.052;2022-10-16T13:00:53;97484.63;;;23.22;50.04
58367;BME280;57745;42.524;12.052;2022-10-16T13:14:41;97474.34;;;23.22;49.91
58367;BME280;57745;42.524;12.052;2022-10-16T13:28:04;97485.41;;;23.22;49.91
58367;BME280;57745;42.524;12.052;2022-10-16T13:30:37;97478.88;;;23.25;49.71
58367;BME280;57745;42.524;12.052;2022-10-16T13:35:59;97489.75;;;23.29;49.69
58367;BME280;57745;42.524;12.052;2022-10-16T13:38:27;97492.31;;;23.33;49.51
58367;BME280;57745;42.524;12.052;2022-10-16T13:41:12;97478.09;;;23.25;50.33
58367;BME280;57745;42.524;12.052;2022-10-16T13:46:16;97493.00;;;23.27;50.12
58367;BME280;57745;42.524;12.052;2022-10-16T13:48:43;97488.78;;;23.32;49.95
58367;BME280;57745;42.524;12.052;2022-10-16T13:51:14;97492.03;;;23.31;49.99
58367;BME280;57745;42.524;12.052;2022-10-16T13:53:41;97482.19;;;23.29;50.26
58367;BME280;57745;42.524;12.052;2022-10-16T13:56:11;97493.81;;;23.34;50.18
58367;BME280;57745;42.524;12.052;2022-10-16T13:58:38;97493.81;;;23.34;50.15
58367;BME280;57745;42.524;12.052;2022-10-16T14:01:15;97493.41;;;23.41;49.71
58367;BME280;57745;42.524;12.052;2022-10-16T14:03:42;97484.75;;;23.33;49.98
58367;BME280;57745;42.524;12.052;2022-10-16T14:06:13;97484.75;;;23.33;50.45
58367;BME280;57745;42.524;12.052;2022-10-16T14:08:48;97487.44;;;23.27;50.13
58367;BME280;57745;42.524;12.052;2022-10-16T14:11:21;97488.41;;;23.24;50.79
58367;BME280;57745;42.524;12.052;2022-10-16T14:13:50;97491.25;;;23.30;50.69
58367;BME280;57745;42.524;12.052;2022-10-16T14:16:25;97493.81;;;23.34;50.15
58367;BME280;57745;42.524;12.052;2022-10-16T14:19:04;97489.94;;;23.25;50.57
58367;BME280;57745;42.524;12.052;2022-10-16T14:21:37;97492.78;;;23.31;50.37
58367;BME280;57745;42.524;12.052;2022-10-16T14:26:57;97492.66;;;23.20;51.51
58367;BME280;57745;42.524;12.052;2022-10-16T14:29:25;97498.00;;;23.23;51.08
58367;BME280;57745;42.524;12.052;2022-10-16T14:32:21;97489.47;;;23.27;50.43
58367;BME280;57745;42.524;12.052;2022-10-16T14:34:58;97490.50;;;23.29;50.46
58367;BME280;57745;42.524;12.052;2022-10-16T14:37:29;97491.75;;;23.28;50.35
58367;BME280;57745;42.524;12.052;2022-10-16T14:39:55;97488.97;;;23.28;50.63
58367;BME280;57745;42.524;12.052;2022-10-16T14:42:24;97489.53;;;23.33;50.55
58367;BME280;57745;42.524;12.052;2022-10-16T14:44:52;97484.69;;;23.27;50.67
58367;BME280;57745;42.524;12.052;2022-10-16T14:47:21;97496.31;;;23.32;50.12
58367;BME280;57745;42.524;12.052;2022-10-16T14:49:51;97496.66;;;23.39;50.03
58367;BME280;57745;42.524;12.052;2022-10-16T14:52:18;97496.81;;;23.30;50.58
58367;BME280;57745;42.524;12.052;2022-10-16T14:54:49;97495.84;;;23.33;50.11
58367;BME280;57745;42.524;12.052;2022-10-16T14:57:19;97498.13;;;23.35;50.53
58367;BME280;57745;42.524;12.052;2022-10-16T14:59:46;97493.34;;;23.35;50.33
58367;BME280;57745;42.524;12.052;2022-10-16T15:04:41;97501.69;;;23.41;50.28
58367;BME280;57745;42.524;12.052;2022-10-16T15:07:07;97501.69;;;23.41;50.38
58367;BME280;57745;42.524;12.052;2022-10-16T15:09:33;97506.72;;;23.37;50.43
58367;BME280;57745;42.524;12.052;2022-10-16T15:11:58;97515.25;;;23.39;50.14
58367;BME280;57745;42.524;12.052;2022-10-16T15:14:24;97513.75;;;23.38;50.49
58367;BME280;57745;42.524;12.052;2022-10-16T15:16:50;97522.31;;;23.40;50.38
58367;BME280;57745;42.524;12.052;2022-10-16T15:19:15;97515.25;;;23.39;50.39